Time;durP1;ratioP1;P1;durP2;ratioP2;P2;SDS_P1;SDS_P2;PMS_P1;PMS_P2;Temp;Humidity;BMP_temperature;BMP_pressure;BME280_temperature;BME280_humidity;BME280_pressure;Samples;Min_cycle;Max_cycle;Signal;HPM_P1;HPM_P2
2023/10/22 00:02:38;;;;;;;5.45;1.52;;;;;;;11.78;100.00;99698.19;6133885;28;20020;-70
2023/10/22 00:05:33;;;;;;;5.30;1.35;;;;;;;11.64;100.00;99703.41;6117301;28;20115;-70
2023/10/22 00:08:29;;;;;;;1.40;0.80;;;;;;;11.46;100.00;99682.47;6128339;28;20054;-71
2023/10/22 00:11:24;;;;;;;2.88;0.90;;;;;;;11.58;100.00;99694.31;6138965;28;20024;-72
2023/10/22 00:14:20;;;;;;;1.60;0.90;;;;;;;11.42;100.00;99686.47;6139507;28;20043;-72
2023/10/22 00:17:15;;;;;;;3.97;1.07;;;;;;;11.30;100.00;99687.91;6145319;28;20036;-72
2023/10/22 00:20:11;;;;;;;1.60;0.87;;;;;;;11.19;100.00;99689.13;6133610;28;20479;-72
2023/10/22 00:23:06;;;;;;;4.22;1.10;;;;;;;11.12;100.00;99712.03;6134010;28;20020;-74
2023/10/22 00:26:02;;;;;;;3.37;0.80;;;;;;;10.85;100.00;99714.31;6135185;28;20044;-72
2023/10/22 00:28:57;;;;;;;4.38;0.98;;;;;;;10.67;100.00;99704.78;6140937;28;20032;-70
2023/10/22 00:31:52;;;;;;;2.43;0.90;;;;;;;10.34;100.00;99674.09;6110664;28;20065;-71
2023/10/22 00:34:47;;;;;;;3.47;0.93;;;;;;;10.49;100.00;99719.28;6129111;28;20105;-73
2023/10/22 00:37:43;;;;;;;3.37;1.10;;;;;;;10.48;100.00;99707.84;6140651;28;20372;-74
2023/10/22 00:40:38;;;;;;;2.77;0.80;;;;;;;10.51;100.00;99711.97;6132373;28;20056;-72
2023/10/22 00:43:33;;;;;;;6.17;1.17;;;;;;;10.51;100.00;99720.75;6138612;28;20035;-73
2023/10/22 00:46:29;;;;;;;1.17;0.77;;;;;;;10.45;100.00;99713.47;6132220;28;20391;-70
2023/10/22 00:49:24;;;;;;;2.97;1.00;;;;;;;10.41;100.00;99704.19;6108273;28;20388;-70
2023/10/22 00:52:19;;;;;;;4.37;0.80;;;;;;;10.35;100.00;99704.91;6110469;28;20056;-72
2023/10/22 00:55:15;;;;;;;3.17;0.73;;;;;;;10.29;100.00;99702.91;6135162;28;20465;-72
2023/10/22 00:58:12;;;;;;;3.33;0.90;;;;;;;10.29;100.00;99707.38;6138311;28;20028;-70
2023/10/22 01:01:08;;;;;;;3.42;0.95;;;;;;;10.17;100.00;99709.53;6137804;28;20285;-72
2023/10/22 01:04:04;;;;;;;2.95;0.90;;;;;;;10.05;100.00;99697.63;6123938;28;20471;-71
2023/10/22 01:07:00;;;;;;;4.80;0.98;;;;;;;9.96;100.00;99710.03;6141755;28;20084;-71
2023/10/22 01:09:56;;;;;;;2.10;1.00;;;;;;;9.65;100.00;99709.03;6128999;28;20044;-72
2023/10/22 01:12:51;;;;;;;2.65;0.82;;;;;;;9.45;100.00;99713.84;6140130;28;20151;-71
2023/10/22 01:15:47;;;;;;;5.33;1.43;;;;;;;9.43;100.00;99715.00;6132593;28;20035;-71
2023/10/22 01:18:42;;;;;;;5.43;1.20;;;;;;;9.45;100.00;99719.13;6135646;28;20055;-70
2023/10/22 01:21:37;;;;;;;7.20;1.10;;;;;;;9.38;100.00;99712.81;6122732;28;20340;-71
2023/10/22 01:24:33;;;;;;;2.63;0.97;;;;;;;9.44;100.00;99714.81;6110352;28;20098;-71
2023/10/22 01:27:32;;;;;;;6.03;1.08;;;;;;;9.43;100.00;99726.38;6136415;28;20361;-73
2023/10/22 01:30:27;;;;;;;5.10;1.17;;;;;;;9.32;100.00;99713.47;6135607;28;20087;-72
2023/10/22 01:33:22;;;;;;;4.20;1.47;;;;;;;9.43;100.00;99715.00;6139859;28;20426;-71
2023/10/22 01:36:18;;;;;;;2.53;0.90;;;;;;;9.45;100.00;99719.13;6129487;28;20036;-70
2023/10/22 01:39:14;;;;;;;3.53;1.13;;;;;;;9.42;100.00;99714.16;6135921;28;20119;-71
2023/10/22 01:42:10;;;;;;;2.67;1.17;;;;;;;9.53;100.00;99721.78;6133283;28;20028;-71
2023/10/22 01:45:06;;;;;;;7.03;2.10;;;;;;;9.58;100.00;99713.34;6127821;28;20048;-70
2023/10/22 01:48:01;;;;;;;2.92;0.95;;;;;;;9.66;100.00;99717.81;6136967;28;20021;-71
2023/10/22 01:50:56;;;;;;;1.90;0.70;;;;;;;9.50;100.00;99679.78;6133508;28;20038;-71
2023/10/22 01:53:52;;;;;;;2.33;0.93;;;;;;;9.77;100.00;99722.78;6129093;28;20407;-71
2023/10/22 01:56:47;;;;;;;3.33;1.10;;;;;;;9.80;100.00;99715.34;6134056;28;20376;-72
2023/10/22 01:59:42;;;;;;;3.37;1.27;;;;;;;9.88;100.00;99704.75;6128013;28;20032;-71
2023/10/22 02:02:40;;;;;;;2.47;0.93;;;;;;;9.90;100.00;99691.34;6122891;28;20063;-71
2023/10/22 02:05:36;;;;;;;5.47;1.15;;;;;;;9.91;100.00;99700.94;6127433;28;20063;-72
2023/10/22 02:08:31;;;;;;;5.05;1.50;;;;;;;9.80;100.00;99695.97;6134427;28;20032;-72
2023/10/22 02:11:27;;;;;;;5.83;1.63;;;;;;;10.00;100.00;99695.47;6137457;28;20036;-71
2023/10/22 02:14:22;;;;;;;8.07;1.50;;;;;;;10.13;100.00;99698.47;6138370;28;20024;-70
2023/10/22 02:17:17;;;;;;;6.70;1.23;;;;;;;10.03;100.00;99691.66;6140148;28;20461;-70
2023/10/22 02:20:13;;;;;;;6.17;1.40;;;;;;;10.01;100.00;99688.34;6135363;28;20476;-71
2023/10/22 02:23:09;;;;;;;5.23;1.00;;;;;;;10.23;100.00;99692.97;6127085;28;20078;-70
2023/10/22 02:26:05;;;;;;;4.38;0.80;;;;;;;10.20;100.00;99688.03;6144270;28;20040;-71
2023/10/22 02:29:00;;;;;;;5.55;0.90;;;;;;;10.29;100.00;99696.78;6141161;28;20075;-71
2023/10/22 02:31:55;;;;;;;1.33;0.63;;;;;;;10.39;100.00;99698.25;6143326;28;20202;-72
2023/10/22 02:34:52;;;;;;;6.97;0.80;;;;;;;10.39;100.00;99687.63;6146418;28;20051;-73
2023/10/22 02:37:47;;;;;;;4.97;1.20;;;;;;;10.48;100.00;99691.94;6129887;28;20036;-72
2023/10/22 02:40:43;;;;;;;4.37;0.93;;;;;;;10.47;100.00;99698.22;6110404;28;20043;-70
2023/10/22 02:43:38;;;;;;;5.93;1.23;;;;;;;10.07;100.00;99677.09;6128436;28;20391;-71
2023/10/22 02:46:34;;;;;;;2.97;1.33;;;;;;;9.84;100.00;99718.47;6135680;28;20068;-70
2023/10/22 02:49:30;;;;;;;3.07;1.00;;;;;;;9.53;100.00;99713.84;6133933;28;20036;-71
2023/10/22 02:52:26;;;;;;;3.97;1.00;;;;;;;9.47;100.00;99706.56;6139817;28;20411;-71
2023/10/22 02:55:22;;;;;;;11.35;2.97;;;;;;;9.45;100.00;99719.13;6142696;28;20102;-69
2023/10/22 02:58:17;;;;;;;2.78;0.98;;;;;;;9.46;100.00;99734.00;6132160;28;20115;-70
2023/10/22 03:01:16;;;;;;;2.37;0.93;;;;;;;9.35;100.00;99712.31;6131289;28;20089;-69
2023/10/22 03:04:12;;;;;;;4.50;0.85;;;;;;;9.39;100.00;99724.25;6138509;28;20024;-70
2023/10/22 03:07:07;;;;;;;3.60;0.90;;;;;;;9.25;100.00;99701.91;6135991;28;20024;-71
2023/10/22 03:10:03;;;;;;;3.30;1.10;;;;;;;9.32;100.00;99724.03;6138141;28;20047;-71
2023/10/22 03:12:59;;;;;;;6.03;1.20;;;;;;;9.28;100.00;99730.66;6133193;28;20042;-69
2023/10/22 03:15:55;;;;;;;4.45;1.30;;;;;;;9.23;100.00;99717.09;6137225;28;20040;-69
2023/10/22 03:18:50;;;;;;;3.13;0.90;;;;;;;9.44;100.00;99720.13;6133593;28;20035;-70
2023/10/22 03:21:46;;;;;;;2.45;0.77;;;;;;;9.55;100.00;99714.50;6130346;28;20028;-71
2023/10/22 03:24:41;;;;;;;2.97;0.75;;;;;;;9.74;100.00;99713.34;6129438;28;20491;-72
2023/10/22 03:27:37;;;;;;;1.53;0.70;;;;;;;9.73;100.00;99713.53;6132228;28;20044;-71
2023/10/22 03:30:37;;;;;;;2.53;0.75;;;;;;;9.91;100.00;99708.91;6128459;28;20031;-71
2023/10/22 03:33:33;;;;;;;;;;;;;;;9.94;100.00;99724.44;6127946;28;20535;-69
2023/10/22 03:36:28;;;;;;;5.90;0.80;;;;;;;9.97;100.00;99714.34;6136647;28;19919;-71
2023/10/22 03:39:23;;;;;;;1.80;0.60;;;;;;;10.07;100.00;99714.19;6123278;28;20029;-70
2023/10/22 03:42:19;;;;;;;2.83;0.80;;;;;;;10.08;100.00;99699.94;6134765;28;20369;-72
2023/10/22 03:45:14;;;;;;;3.53;0.73;;;;;;;10.19;100.00;99720.81;6141348;28;20020;-73
2023/10/22 03:48:09;;;;;;;3.37;0.90;;;;;;;10.14;100.00;99713.34;6125693;28;20490;-71
2023/10/22 03:51:04;;;;;;;2.50;0.50;;;;;;;10.17;100.00;99709.53;6126806;28;20483;-72
2023/10/22 03:54:00;;;;;;;1.97;0.53;;;;;;;9.99;100.00;99685.06;6125804;28;20086;-71
2023/10/22 03:56:56;;;;;;;3.58;0.93;;;;;;;10.12;100.00;99719.78;6131605;28;20040;-71
2023/10/22 03:59:51;;;;;;;1.75;0.50;;;;;;;10.11;100.00;99712.81;6132689;28;20468;-71
2023/10/22 04:02:46;;;;;;;5.28;0.75;;;;;;;10.17;100.00;99704.25;6132311;28;20081;-71
2023/10/22 04:05:42;;;;;;;0.90;0.30;;;;;;;10.23;100.00;99721.28;6128481;28;20028;-71
2023/10/22 04:08:37;;;;;;;2.30;0.53;;;;;;;10.24;100.00;99715.00;6125251;28;20046;-71
2023/10/22 04:11:32;;;;;;;3.60;0.60;;;;;;;10.32;100.00;99713.19;6123839;28;20060;-71
2023/10/22 04:14:28;;;;;;;2.20;0.60;;;;;;;10.33;100.00;99722.75;6131891;28;20047;-70
2023/10/22 04:17:23;;;;;;;1.13;0.47;;;;;;;10.32;100.00;99722.94;6128314;28;20024;-71
2023/10/22 04:20:18;;;;;;;3.97;0.90;;;;;;;10.30;100.00;99725.75;6132802;28;20107;-71
2023/10/22 04:23:14;;;;;;;5.38;0.70;;;;;;;10.41;100.00;99714.78;6120940;28;20048;-70
2023/10/22 04:26:14;;;;;;;3.53;0.50;;;;;;;10.50;100.00;99719.09;6122165;28;20032;-73
2023/10/22 04:29:09;;;;;;;2.45;0.60;;;;;;;10.61;100.00;99739.09;6124848;28;20332;-70
2023/10/22 04:32:05;;;;;;;4.88;0.73;;;;;;;10.65;100.00;99727.97;6123736;28;20070;-71
2023/10/22 04:35:01;;;;;;;2.47;0.65;;;;;;;10.66;100.00;99715.56;6138978;28;20436;-71
2023/10/22 04:37:56;;;;;;;2.50;0.75;;;;;;;10.48;100.00;99723.75;6137252;28;20032;-72
2023/10/22 04:40:51;;;;;;;2.10;0.60;;;;;;;10.33;100.00;99736.00;6131210;28;20029;-70
2023/10/22 04:43:47;;;;;;;2.17;0.57;;;;;;;10.33;100.00;99741.31;6126717;28;20079;-71
2023/10/22 04:46:42;;;;;;;3.43;0.57;;;;;;;10.26;100.00;99750.09;6122481;28;20368;-70
2023/10/22 04:49:37;;;;;;;4.60;0.80;;;;;;;10.09;100.00;99754.56;6121402;28;20040;-70
2023/10/22 04:52:34;;;;;;;2.43;0.87;;;;;;;9.89;100.00;99750.59;6124527;28;20067;-70
2023/10/22 04:55:30;;;;;;;4.60;1.23;;;;;;;9.64;100.00;99739.16;6136740;28;20746;-71
2023/10/22 04:58:27;;;;;;;4.22;1.48;;;;;;;9.81;100.00;99750.59;6131301;28;20032;-70
2023/10/22 05:01:23;;;;;;;10.57;1.40;;;;;;;9.58;100.00;99750.41;6104260;28;20051;-70
2023/10/22 05:04:18;;;;;;;3.30;0.83;;;;;;;9.48;100.00;99777.00;6128477;28;20479;-72
2023/10/22 05:07:14;;;;;;;3.87;0.90;;;;;;;9.61;100.00;99775.72;6122399;28;20424;-71
2023/10/22 05:10:09;;;;;;;3.10;1.10;;;;;;;9.74;100.00;99776.06;6125463;28;20036;-72
2023/10/22 05:13:06;;;;;;;2.83;0.80;;;;;;;9.79;100.00;99776.41;6122283;28;20024;-71
2023/10/22 05:16:01;;;;;;;2.75;0.93;;;;;;;9.72;100.00;99778.88;6127078;28;20050;-73
2023/10/22 05:18:56;;;;;;;4.43;0.97;;;;;;;9.74;100.00;99776.91;6131663;28;20429;-70
2023/10/22 05:21:52;;;;;;;3.87;1.10;;;;;;;9.59;100.00;99787.28;6131472;28;20052;-71
2023/10/22 05:24:48;;;;;;;6.00;1.90;;;;;;;9.56;100.00;99795.56;6132741;28;20048;-71
2023/10/22 05:27:43;;;;;;;3.78;0.80;;;;;;;9.55;100.00;99804.50;6134115;28;20094;-72
2023/10/22 05:30:38;;;;;;;2.87;1.00;;;;;;;9.47;100.00;99801.00;6137663;28;20431;-70
2023/10/22 05:33:34;;;;;;;3.88;1.23;;;;;;;9.44;100.00;99811.91;6112286;28;20056;-72
2023/10/22 05:36:29;;;;;;;8.20;2.97;;;;;;;9.58;100.00;99809.47;6130001;28;20029;-71
2023/10/22 05:39:24;;;;;;;2.67;1.30;;;;;;;9.53;100.00;99806.47;6132394;28;20024;-72
2023/10/22 05:42:19;;;;;;;3.47;0.93;;;;;;;9.62;100.00;99814.44;6137634;28;20028;-71
2023/10/22 05:45:15;;;;;;;4.33;0.90;;;;;;;9.61;100.00;99820.72;6140370;28;20042;-71
2023/10/22 05:48:10;;;;;;;2.87;0.70;;;;;;;9.61;100.00;99813.59;6138462;28;20032;-72
2023/10/22 05:51:05;;;;;;;3.47;1.00;;;;;;;9.66;100.00;99826.34;6130114;28;20351;-70
2023/10/22 05:54:03;;;;;;;3.67;0.80;;;;;;;9.61;100.00;99828.66;6133455;28;20035;-70
2023/10/22 05:56:59;;;;;;;2.80;0.95;;;;;;;9.77;100.00;99820.75;6143541;28;20027;-71
2023/10/22 05:59:57;;;;;;;2.90;1.20;;;;;;;9.87;100.00;99809.00;6135665;28;20085;-70
2023/10/22 06:02:52;;;;;;;4.47;0.50;;;;;;;10.06;100.00;99831.69;6134721;28;20452;-71
2023/10/22 06:05:48;;;;;;;4.57;0.70;;;;;;;10.21;100.00;99837.22;6138849;28;20040;-70
2023/10/22 06:08:45;;;;;;;2.85;0.70;;;;;;;10.24;100.00;99821.81;6141354;28;20036;-70
2023/10/22 06:11:40;;;;;;;6.22;0.80;;;;;;;10.42;100.00;99830.44;6121919;28;20466;-71
2023/10/22 06:14:36;;;;;;;2.83;0.63;;;;;;;10.44;100.00;99846.97;6135681;28;20097;-70
2023/10/22 06:17:31;;;;;;;2.55;0.80;;;;;;;10.46;100.00;99834.38;6138794;28;20032;-72
2023/10/22 06:20:30;;;;;;;4.33;1.00;;;;;;;10.43;100.00;99821.50;6134126;28;20031;-70
2023/10/22 06:23:25;;;;;;;2.47;0.60;;;;;;;10.55;100.00;99825.44;6135816;28;20463;-70
2023/10/22 06:26:21;;;;;;;2.60;0.70;;;;;;;10.57;100.00;99844.66;6127515;28;20032;-72
2023/10/22 06:29:16;;;;;;;2.83;0.77;;;;;;;10.43;100.00;99840.03;6129957;28;20024;-70
2023/10/22 06:32:11;;;;;;;3.40;0.87;;;;;;;10.43;100.00;99848.00;6127122;28;20024;-70
2023/10/22 06:35:07;;;;;;;2.60;0.80;;;;;;;10.44;100.00;99849.63;6135652;28;20430;-71
2023/10/22 06:38:03;;;;;;;3.80;0.80;;;;;;;10.53;100.00;99866.38;6122029;28;20055;-72
2023/10/22 06:40:58;;;;;;;3.30;0.70;;;;;;;10.59;100.00;99871.84;6131172;28;20117;-71
2023/10/22 06:43:53;;;;;;;5.10;0.90;;;;;;;10.56;100.00;99866.88;6126753;28;20100;-70
2023/10/22 06:46:49;;;;;;;2.07;0.60;;;;;;;10.80;100.00;99871.31;6141435;28;20034;-71
2023/10/22 06:49:44;;;;;;;3.73;0.50;;;;;;;10.98;100.00;99863.16;6114116;28;20053;-70
2023/10/22 06:52:42;;;;;;;3.17;0.68;;;;;;;11.08;100.00;99863.78;6136982;28;20036;-69
2023/10/22 06:55:41;;;;;;;2.15;0.52;;;;;;;11.20;100.00;99883.66;6134573;28;20463;-73
2023/10/22 06:58:36;;;;;;;2.38;1.00;;;;;;;11.29;100.00;99887.94;6132132;28;20080;-71
2023/10/22 07:01:32;;;;;;;5.57;0.97;;;;;;;11.31;100.00;99885.94;6139855;28;20042;-71
2023/10/22 07:04:27;;;;;;;2.63;0.73;;;;;;;11.23;100.00;99875.34;6143793;28;20028;-70
2023/10/22 07:07:23;;;;;;;2.33;0.87;;;;;;;11.27;100.00;99889.94;6119977;28;20438;-70
2023/10/22 07:10:19;;;;;;;2.17;0.80;;;;;;;11.22;100.00;99876.38;6130365;28;20293;-70
2023/10/22 07:13:15;;;;;;;2.70;0.77;;;;;;;11.36;100.00;99894.22;6131912;28;20486;-71
2023/10/22 07:16:10;;;;;;;2.58;0.60;;;;;;;11.35;100.00;99890.75;6129524;28;20275;-72
2023/10/22 07:19:06;;;;;;;2.83;0.60;;;;;;;11.50;100.00;99901.47;6133207;28;20086;-71
2023/10/22 07:22:01;;;;;;;3.23;0.83;;;;;;;11.52;100.00;99885.38;6133361;28;20297;-70
2023/10/22 07:24:56;;;;;;;4.63;0.80;;;;;;;11.49;100.00;99888.38;6130902;28;20107;-70
2023/10/22 07:27:51;;;;;;;5.47;1.00;;;;;;;11.43;100.00;99891.72;6107280;28;20278;-72
2023/10/22 07:30:48;;;;;;;3.37;1.10;;;;;;;11.48;100.00;99903.47;6128773;28;20115;-72
2023/10/22 07:33:44;;;;;;;2.58;0.82;;;;;;;11.45;100.00;99911.78;6136672;28;20263;-70
2023/10/22 07:36:39;;;;;;;2.27;0.70;;;;;;;11.44;100.00;99902.16;6130232;28;20036;-71
2023/10/22 07:39:34;;;;;;;4.07;0.77;;;;;;;11.49;100.00;99909.63;6128626;28;20039;-70
2023/10/22 07:42:30;;;;;;;2.33;0.70;;;;;;;11.55;100.00;99904.44;6123972;28;20079;-71
2023/10/22 07:45:26;;;;;;;3.70;0.70;;;;;;;11.65;100.00;99910.38;6132236;28;20055;-70
2023/10/22 07:48:21;;;;;;;3.15;0.80;;;;;;;11.79;100.00;99919.47;6119132;28;20032;-70
2023/10/22 07:51:21;;;;;;;3.20;0.80;;;;;;;11.89;100.00;99923.59;6117086;28;20056;-71
2023/10/22 07:54:17;;;;;;;1.15;0.70;;;;;;;11.96;100.00;99939.63;6129342;28;20039;-71
2023/10/22 07:57:12;;;;;;;3.23;0.70;;;;;;;11.92;100.00;99933.88;6134309;28;20101;-71
2023/10/22 08:00:08;;;;;;;3.77;0.73;;;;;;;11.97;100.00;99924.53;6132211;28;20670;-72
2023/10/22 08:03:03;;;;;;;3.45;0.70;;;;;;;12.08;100.00;99940.91;6123687;28;20028;-71
2023/10/22 08:06:00;;;;;;;2.67;0.57;;;;;;;12.12;100.00;99944.06;6119524;28;20108;-71
2023/10/22 08:08:56;;;;;;;2.78;0.80;;;;;;;12.33;100.00;99957.56;6120465;28;20036;-71
2023/10/22 08:11:51;;;;;;;2.40;0.82;;;;;;;12.30;100.00;99942.78;6145813;28;20097;-72
2023/10/22 08:14:46;;;;;;;3.07;0.63;;;;;;;12.27;100.00;99942.28;6126350;28;20479;-70
2023/10/22 08:17:41;;;;;;;2.73;0.70;;;;;;;12.39;100.00;99956.84;6143055;28;20036;-71
2023/10/22 08:20:37;;;;;;;2.37;0.63;;;;;;;12.42;100.00;99967.09;6131032;28;20118;-70
2023/10/22 08:23:32;;;;;;;5.40;1.10;;;;;;;12.35;100.00;99966.16;6133253;28;20048;-71
2023/10/22 08:26:27;;;;;;;2.20;1.00;;;;;;;12.32;100.00;99969.19;6133604;28;20024;-70
2023/10/22 08:29:23;;;;;;;1.80;0.60;;;;;;;12.41;100.00;99970.78;6123575;28;20274;-71
2023/10/22 08:32:18;;;;;;;2.37;0.80;;;;;;;12.50;100.00;99967.88;6124249;28;20090;-72
2023/10/22 08:35:14;;;;;;;3.97;0.93;;;;;;;12.61;100.00;99981.81;6128910;28;20040;-71
2023/10/22 08:38:09;;;;;;;4.22;1.10;;;;;;;12.70;100.00;99975.41;6122799;28;20033;-69
2023/10/22 08:41:11;;;;;;;2.03;0.67;;;;;;;12.65;100.00;99969.78;6127033;28;20036;-69
2023/10/22 08:44:06;;;;;;;1.50;0.88;;;;;;;12.74;100.00;99988.19;6114709;28;20274;-71
2023/10/22 08:47:03;;;;;;;5.65;1.10;;;;;;;12.78;100.00;99983.31;6109781;28;20099;-70
2023/10/22 08:49:59;;;;;;;2.22;0.82;;;;;;;12.70;100.00;99968.25;6139003;28;20123;-70
2023/10/22 08:52:54;;;;;;;2.75;0.70;;;;;;;12.72;100.00;99979.53;6109346;28;20514;-72
2023/10/22 08:55:49;;;;;;;5.10;0.70;;;;;;;13.24;100.00;99982.28;6133061;28;20063;-71
2023/10/22 08:58:45;;;;;;;3.55;0.80;;;;;;;13.68;100.00;99982.31;6134677;28;20028;-71
2023/10/22 09:01:40;;;;;;;4.27;0.93;;;;;;;13.75;100.00;99972.59;6127655;28;20028;-71
2023/10/22 09:04:35;;;;;;;2.10;0.80;;;;;;;13.96;99.23;99975.34;6130414;28;20042;-72
2023/10/22 09:07:51;;;;;;;3.45;0.60;;;;;;;14.21;96.82;99987.31;6120689;28;20495;-72
2023/10/22 09:10:48;;;;;;;0.93;0.50;;;;;;;13.98;98.70;99989.31;6135701;28;20044;-72
2023/10/22 09:13:44;;;;;;;3.72;0.82;;;;;;;14.01;98.66;99996.94;6125058;28;20043;-71
2023/10/22 09:16:41;;;;;;;4.60;0.80;;;;;;;14.05;98.16;99990.19;6129840;28;20039;-71
2023/10/22 09:19:37;;;;;;;3.45;0.70;;;;;;;14.06;99.29;99999.03;6133428;28;20044;-70
2023/10/22 09:22:33;;;;;;;3.20;0.65;;;;;;;13.84;99.85;100003.47;6130109;28;20036;-71
2023/10/22 09:25:35;;;;;;;1.67;0.65;;;;;;;13.72;100.00;99996.97;6135050;28;20028;-72
2023/10/22 09:28:30;;;;;;;1.88;0.68;;;;;;;13.68;100.00;100016.97;6133299;28;20111;-72
2023/10/22 09:31:28;;;;;;;3.70;0.80;;;;;;;13.80;100.00;100028.00;6122973;28;20058;-71
2023/10/22 09:34:27;;;;;;;3.10;0.80;;;;;;;13.72;100.00;100020.94;6130083;28;20486;-71
2023/10/22 09:37:23;;;;;;;1.10;0.57;;;;;;;13.68;100.00;100028.47;6127079;28;20029;-71
2023/10/22 09:40:21;;;;;;;3.67;0.80;;;;;;;13.74;100.00;100034.91;6117945;28;20138;-71
2023/10/22 09:43:17;;;;;;;4.35;0.80;;;;;;;13.70;100.00;100030.94;6121797;28;20028;-71
2023/10/22 09:46:12;;;;;;;4.63;0.90;;;;;;;13.62;100.00;100033.69;6129926;28;20032;-71
2023/10/22 09:49:09;;;;;;;2.70;0.80;;;;;;;13.73;100.00;100038.56;6101249;28;20039;-72
2023/10/22 09:52:09;;;;;;;3.17;0.90;;;;;;;13.76;100.00;100040.88;6078462;28;20032;-72
2023/10/22 09:55:05;;;;;;;3.40;0.63;;;;;;;13.60;100.00;100022.38;6100115;28;20451;-71
2023/10/22 09:58:00;;;;;;;3.35;0.65;;;;;;;13.75;100.00;100030.41;6110695;28;20114;-71
2023/10/22 10:00:56;;;;;;;4.00;0.80;;;;;;;13.82;100.00;100048.13;6099563;28;20040;-72
2023/10/22 10:03:53;;;;;;;2.30;0.63;;;;;;;13.97;100.00;100043.63;6130633;28;20768;-71
2023/10/22 10:06:49;;;;;;;2.88;0.80;;;;;;;14.05;100.00;100054.19;6138410;28;20115;-72
2023/10/22 10:09:45;;;;;;;1.90;0.68;;;;;;;14.03;100.00;100045.56;6118887;28;20585;-70
2023/10/22 10:12:42;;;;;;;5.45;0.65;;;;;;;14.08;100.00;100039.66;6126493;28;20059;-71
2023/10/22 10:15:38;;;;;;;3.00;0.55;;;;;;;14.17;98.63;100039.38;6133447;28;20032;-72
2023/10/22 10:19:08;;;;;;;1.48;0.52;;;;;;;14.41;98.11;100053.44;6134812;28;20048;-70
2023/10/22 10:22:04;;;;;;;1.58;0.52;;;;;;;14.59;97.48;100051.22;6113942;28;20035;-72
2023/10/22 10:25:28;;;;;;;0.90;0.70;;;;;;;14.68;94.79;100052.75;6131413;28;20028;-72
2023/10/22 10:28:39;;;;;;;4.20;0.60;;;;;;;14.85;93.65;100048.81;6128078;28;20032;-71
2023/10/22 10:31:34;;;;;;;3.63;0.50;;;;;;;14.59;91.86;100056.56;6103943;28;20036;-71
2023/10/22 10:34:39;;;;;;;2.63;0.40;;;;;;;14.66;92.47;100065.44;6106081;28;20509;-71
2023/10/22 10:37:35;;;;;;;2.13;0.40;;;;;;;14.79;92.52;100062.94;6142055;28;20170;-72
2023/10/22 10:40:46;;;;;;;1.63;0.60;;;;;;;14.92;92.94;100073.75;6136746;28;20024;-71
2023/10/22 10:44:08;;;;;;;0.85;0.43;;;;;;;15.10;92.58;100076.81;6132675;28;20028;-72
2023/10/22 10:47:21;;;;;;;3.22;0.40;;;;;;;15.38;87.87;100069.66;6133935;28;20024;-71
2023/10/22 10:50:19;;;;;;;1.88;0.50;;;;;;;15.48;85.95;100075.56;6139177;28;20084;-72
2023/10/22 10:53:15;;;;;;;1.27;0.55;;;;;;;15.51;86.73;100079.69;6137579;28;20024;-71
2023/10/22 10:56:10;;;;;;;2.63;0.43;;;;;;;15.29;87.80;100080.69;6139926;28;20451;-73
2023/10/22 10:59:06;;;;;;;2.10;0.50;;;;;;;14.94;91.95;100090.41;6134264;28;20040;-71
2023/10/22 11:02:08;;;;;;;1.53;0.40;;;;;;;14.76;95.24;100090.81;6143700;28;20039;-71
2023/10/22 11:05:03;;;;;;;1.83;0.43;;;;;;;14.88;94.99;100083.16;6138117;28;20090;-72
2023/10/22 11:07:59;;;;;;;1.52;1.00;;;;;;;15.02;93.64;100073.44;6131676;28;20033;-71
2023/10/22 11:10:54;;;;;;;3.47;0.60;;;;;;;14.90;92.97;100073.94;6133764;28;20128;-71
2023/10/22 11:13:49;;;;;;;1.40;0.40;;;;;;;14.90;94.79;100086.47;6110898;28;20028;-71
2023/10/22 11:16:53;;;;;;;0.50;0.33;;;;;;;15.07;94.33;100092.38;6137460;28;20039;-72
2023/10/22 11:19:50;;;;;;;0.93;0.40;;;;;;;15.17;95.44;100095.56;6138671;28;20123;-70
2023/10/22 11:22:45;;;;;;;1.13;0.52;;;;;;;15.18;94.54;100087.38;6124589;28;20120;-71
2023/10/22 11:25:42;;;;;;;3.70;0.63;;;;;;;15.25;94.39;100096.25;6120807;28;20032;-71
2023/10/22 11:28:38;;;;;;;2.58;0.70;;;;;;;15.38;90.96;100085.69;6121810;28;20025;-71
2023/10/22 11:31:33;;;;;;;2.97;0.63;;;;;;;15.61;87.24;100092.69;6139482;28;20095;-72
2023/10/22 11:34:29;;;;;;;0.53;0.27;;;;;;;15.68;86.62;100098.94;6146893;28;20024;-73
2023/10/22 11:37:38;;;;;;;1.13;0.40;;;;;;;16.01;85.91;100099.97;6138105;28;20274;-72
2023/10/22 11:40:36;;;;;;;1.50;0.40;;;;;;;16.07;82.95;100110.72;6133545;28;20031;-72
2023/10/22 11:43:32;;;;;;;2.90;0.50;;;;;;;16.19;83.32;100092.28;6127221;28;20042;-71
2023/10/22 11:46:39;;;;;;;2.40;1.33;;;;;;;16.10;81.76;100101.47;6134961;28;20036;-70
2023/10/22 11:49:45;;;;;;;1.52;0.47;;;;;;;16.02;81.33;100098.97;6130426;28;20043;-73
2023/10/22 11:52:46;;;;;;;3.67;0.52;;;;;;;16.20;81.14;100114.53;6117596;28;20028;-71
2023/10/22 11:55:41;;;;;;;1.20;0.47;;;;;;;16.15;81.26;100108.91;6134430;28;20059;-72
2023/10/22 11:58:36;;;;;;;2.17;0.60;;;;;;;16.29;80.69;100124.84;6130852;28;20051;-71
2023/10/22 12:01:32;;;;;;;2.97;0.43;;;;;;;16.32;80.35;100120.97;6140222;28;20373;-72
2023/10/22 12:04:28;;;;;;;0.80;0.40;;;;;;;16.04;80.51;100113.78;6131973;28;20102;-71
2023/10/22 12:07:23;;;;;;;1.23;0.60;;;;;;;15.99;80.76;100131.44;6142201;28;20037;-72
2023/10/22 12:10:19;;;;;;;4.35;0.80;;;;;;;15.94;83.49;100141.91;6127711;28;20028;-72
2023/10/22 12:13:14;;;;;;;3.13;0.80;;;;;;;15.82;82.77;100138.09;6127847;28;20031;-72
2023/10/22 12:16:10;;;;;;;1.55;0.90;;;;;;;15.86;84.09;100144.72;6124559;28;20025;-72
2023/10/22 12:19:05;;;;;;;0.93;0.50;;;;;;;15.77;80.71;100149.38;6134116;28;20085;-71
2023/10/22 12:22:00;;;;;;;1.52;0.50;;;;;;;15.78;83.66;100153.72;6127672;28;20028;-72
2023/10/22 12:24:57;;;;;;;2.13;0.53;;;;;;;15.65;85.06;100150.13;6128314;28;20135;-72
2023/10/22 12:27:52;;;;;;;1.08;0.30;;;;;;;15.48;80.95;100158.41;6126458;28;20048;-72
2023/10/22 12:30:47;;;;;;;3.37;0.70;;;;;;;15.42;80.32;100150.28;6132208;28;20078;-72
2023/10/22 12:33:43;;;;;;;0.53;0.30;;;;;;;15.57;75.94;100164.44;6131652;28;20471;-72
2023/10/22 12:36:38;;;;;;;1.07;0.33;;;;;;;15.87;75.36;100155.22;6132046;28;20082;-71
2023/10/22 12:39:33;;;;;;;4.03;0.40;;;;;;;16.11;70.47;100151.31;6132397;28;20038;-72
2023/10/22 12:42:28;;;;;;;0.98;0.40;;;;;;;16.01;67.91;100148.94;6140483;28;20024;-72
2023/10/22 12:45:24;;;;;;;0.33;0.17;;;;;;;16.07;64.58;100166.06;6130873;28;20030;-71
2023/10/22 12:48:19;;;;;;;1.47;0.40;;;;;;;15.89;58.30;100173.75;6121303;28;20031;-71
2023/10/22 12:51:14;;;;;;;2.23;0.30;;;;;;;15.68;57.93;100163.09;6135853;28;20032;-71
2023/10/22 12:54:10;;;;;;;0.60;0.20;;;;;;;15.64;58.17;100173.34;6130530;28;20028;-71
2023/10/22 12:57:06;;;;;;;1.87;0.30;;;;;;;15.52;61.52;100171.38;6137955;28;20020;-71
2023/10/22 13:00:05;;;;;;;2.28;0.35;;;;;;;15.43;61.64;100184.84;6125709;28;20263;-71
2023/10/22 13:03:01;;;;;;;3.50;0.40;;;;;;;15.35;61.86;100187.63;6133916;28;20434;-72
2023/10/22 13:05:56;;;;;;;1.50;0.47;;;;;;;15.19;63.24;100192.38;6129652;28;20041;-71
2023/10/22 13:08:51;;;;;;;0.47;0.37;;;;;;;14.94;61.41;100183.88;6134520;28;20082;-71
2023/10/22 13:11:46;;;;;;;0.73;0.30;;;;;;;14.85;63.92;100192.97;6120678;28;20063;-71
2023/10/22 13:14:42;;;;;;;0.87;0.30;;;;;;;14.77;63.68;100193.09;6134263;28;20030;-72
2023/10/22 13:17:37;;;;;;;1.00;0.30;;;;;;;14.85;64.98;100211.69;6125628;28;20028;-71
2023/10/22 13:20:32;;;;;;;0.53;0.20;;;;;;;14.75;66.92;100208.47;6125822;28;20515;-72
2023/10/22 13:23:28;;;;;;;1.23;0.38;;;;;;;14.68;66.93;100210.19;6133225;28;20120;-71
2023/10/22 13:26:23;;;;;;;0.83;0.50;;;;;;;14.67;67.29;100219.25;6136957;28;20051;-72
2023/10/22 13:29:18;;;;;;;0.87;0.50;;;;;;;14.59;68.81;100206.81;6139841;28;20060;-72
2023/10/22 13:32:14;;;;;;;0.63;0.37;;;;;;;14.64;70.33;100216.94;6135166;28;20103;-72
2023/10/22 13:35:09;;;;;;;1.03;0.30;;;;;;;14.64;68.26;100214.28;6144796;28;20050;-72
2023/10/22 13:38:04;;;;;;;2.00;0.50;;;;;;;14.73;69.35;100230.00;6134953;28;20051;-71
2023/10/22 13:41:03;;;;;;;0.88;0.38;;;;;;;14.59;68.48;100228.19;6124895;28;20501;-72
2023/10/22 13:43:58;;;;;;;0.60;0.32;;;;;;;14.63;68.70;100220.59;6123616;28;20021;-72